Time;durP1;ratioP1;P1;durP2;ratioP2;P2;SDS_P1;SDS_P2;PMS_P1;PMS_P2;Temp;Humidity;BMP_temperature;BMP_pressure;BME280_temperature;BME280_humidity;BME280_pressure;Samples;Min_cycle;Max_cycle;Signal;HPM_P1;HPM_P2
2024/01/19 00:01:31;;;;;;;;;;;;;;;;;;52974;1251;1057391;-79
2024/01/19 00:03:59;;;;;;;;;;;;;;;;;;53028;1253;1005173;-79
2024/01/19 00:06:25;;;;;;;;;;;;;;;;;;52971;1253;1039185;-79
2024/01/19 00:08:52;;;;;;;;;;;;;;;;;;52997;1253;1005416;-79
2024/01/19 00:11:19;;;;;;;;;;;;;;;;;;52988;1253;1045919;-80
2024/01/19 00:13:45;;;;;;;;;;;;;;;;;;53023;1253;1004213;-80
2024/01/19 00:16:12;;;;;;;;;;;;;;;;;;53021;1251;1060590;-79
2024/01/19 00:18:38;;;;;;;;;;;;;;;;;;53082;1251;1004082;-79
2024/01/19 00:21:05;;;;;;;;;;;;;;;;;;52983;1251;1057103;-80
2024/01/19 00:23:32;;;;;;;;;;;;;;;;;;53054;1251;1005200;-79
2024/01/19 00:25:58;;;;;;;;;;;;;;;;;;52991;1251;1057701;-80
2024/01/19 00:28:25;;;;;;;;;;;;;;;;;;53001;1252;1005397;-80
2024/01/19 00:30:51;;;;;;;;;;;;;;;;;;53010;1251;1040286;-80
2024/01/19 00:33:18;;;;;;;;;;;;;;;;;;53057;1251;1004192;-79
2024/01/19 00:35:45;;;;;;;;;;;;;;;;;;53031;1253;1046522;-79
2024/01/19 00:38:11;;;;;;;;;;;;;;;;;;52987;1250;1005279;-80
2024/01/19 00:40:38;;;;;;;;;;;;;;;;;;52979;1251;1060036;-80
2024/01/19 00:43:04;;;;;;;;;;;;;;;;;;53004;1251;1003525;-80
2024/01/19 00:45:31;;;;;;;;;;;;;;;;;;53041;1251;1056844;-79
2024/01/19 00:47:58;;;;;;;;;;;;;;;;;;52980;1251;1004744;-79
2024/01/19 00:50:24;;;;;;;;;;;;;;;;;;52941;1254;1057738;-79
2024/01/19 00:52:51;;;;;;;;;;;;;;;;;;52954;1252;1005042;-79
2024/01/19 00:55:17;;;;;;;;;;;;;;;;;;52957;1255;1039335;-80
2024/01/19 00:57:44;;;;;;;;;;;;;;;;;;52978;1255;1005354;-80
2024/01/19 01:00:11;;;;;;;;;;;;;;;;;;52956;1253;1045916;-79
2024/01/19 01:02:37;;;;;;;;;;;;;;;;;;53001;1253;1005537;-79
2024/01/19 01:05:05;;;;;;;;;;;;;;;;;;53056;1253;1061131;-80
2024/01/19 01:07:31;;;;;;;;;;;;;;;;;;53030;1252;1005162;-80
2024/01/19 01:09:58;;;;;;;;;;;;;;;;;;52988;1252;1057007;-80
2024/01/19 01:12:24;;;;;;;;;;;;;;;;;;53011;1251;1005242;-79
2024/01/19 01:14:51;;;;;;;;;;;;;;;;;;52929;1251;1057458;-80
2024/01/19 01:17:18;;;;;;;;;;;;;;;;;;52984;1251;1005359;-80
2024/01/19 01:19:44;;;;;;;;;;;;;;;;;;53037;1254;1039009;-80
2024/01/19 01:22:13;;;;;;;;;;;;;;;;;;53020;1251;1003789;-80
2024/01/19 01:24:39;;;;;;;;;;;;;;;;;;53062;1251;1044918;-79
2024/01/19 01:27:06;;;;;;;;;;;;;;;;;;53020;1254;1005729;-79
2024/01/19 01:29:32;;;;;;;;;;;;;;;;;;53075;1251;1060715;-79
2024/01/19 01:31:59;;;;;;;;;;;;;;;;;;53024;1251;1003747;-79
2024/01/19 01:34:25;;;;;;;;;;;;;;;;;;52945;1251;1057288;-79
2024/01/19 01:36:52;;;;;;;;;;;;;;;;;;52992;1251;1005362;-79
2024/01/19 01:39:20;;;;;;;;;;;;;;;;;;53223;1251;1058370;-79
2024/01/19 01:41:48;;;;;;;;;;;;;;;;;;53007;1253;1005508;-80
2024/01/19 01:44:15;;;;;;;;;;;;;;;;;;53602;1251;1038780;-80
2024/01/19 01:46:41;;;;;;;;;;;;;;;;;;54220;1251;1003221;-80
2024/01/19 01:49:08;;;;;;;;;;;;;;;;;;54171;1251;1044979;-80
2024/01/19 01:51:34;;;;;;;;;;;;;;;;;;53975;1251;1003453;-79
2024/01/19 01:54:01;;;;;;;;;;;;;;;;;;53032;1251;1061117;-80
2024/01/19 01:56:27;;;;;;;;;;;;;;;;;;52991;1251;1005149;-80
2024/01/19 01:58:54;;;;;;;;;;;;;;;;;;52994;1251;1056617;-79
2024/01/19 02:01:21;;;;;;;;;;;;;;;;;;53068;1251;1005460;-80
2024/01/19 02:03:47;;;;;;;;;;;;;;;;;;53878;1251;1057238;-79
2024/01/19 02:06:14;;;;;;;;;;;;;;;;;;54200;1251;1003539;-80
2024/01/19 02:08:41;;;;;;;;;;;;;;;;;;54162;1254;1038839;-80
2024/01/19 02:11:07;;;;;;;;;;;;;;;;;;53826;1253;1005565;-80
2024/01/19 02:13:34;;;;;;;;;;;;;;;;;;53047;1254;1047805;-79
2024/01/19 02:16:00;;;;;;;;;;;;;;;;;;53023;1251;1005139;-79
2024/01/19 02:18:27;;;;;;;;;;;;;;;;;;53024;1251;1059806;-80
2024/01/19 02:20:54;;;;;;;;;;;;;;;;;;52981;1251;1005276;-79
2024/01/19 02:23:20;;;;;;;;;;;;;;;;;;53703;1250;1056836;-80
2024/01/19 02:25:47;;;;;;;;;;;;;;;;;;54217;1251;1003137;-80
2024/01/19 02:28:13;;;;;;;;;;;;;;;;;;54154;1251;1058287;-80
2024/01/19 02:30:40;;;;;;;;;;;;;;;;;;54198;1251;1003349;-80
2024/01/19 02:33:07;;;;;;;;;;;;;;;;;;54171;1251;1039042;-80
2024/01/19 02:35:33;;;;;;;;;;;;;;;;;;54193;1251;1003113;-80
2024/01/19 02:38:00;;;;;;;;;;;;;;;;;;54169;1251;1046317;-79
2024/01/19 02:40:26;;;;;;;;;;;;;;;;;;54194;1251;1003340;-80
2024/01/19 02:42:53;;;;;;;;;;;;;;;;;;54210;1251;1060480;-80
2024/01/19 02:45:19;;;;;;;;;;;;;;;;;;53700;1251;1003825;-80
2024/01/19 02:47:46;;;;;;;;;;;;;;;;;;53025;1251;1056608;-80
2024/01/19 02:50:12;;;;;;;;;;;;;;;;;;53012;1253;1005132;-80
2024/01/19 02:52:39;;;;;;;;;;;;;;;;;;52990;1252;1057852;-81
2024/01/19 02:55:05;;;;;;;;;;;;;;;;;;52972;1253;1004738;-80
2024/01/19 02:57:32;;;;;;;;;;;;;;;;;;52999;1253;1038799;-80
2024/01/19 02:59:59;;;;;;;;;;;;;;;;;;53010;1253;1004722;-80
2024/01/19 03:02:25;;;;;;;;;;;;;;;;;;53003;1253;1045818;-80
2024/01/19 03:04:52;;;;;;;;;;;;;;;;;;52955;1251;1005713;-80
2024/01/19 03:07:18;;;;;;;;;;;;;;;;;;53789;1253;1059603;-80
2024/01/19 03:09:45;;;;;;;;;;;;;;;;;;54193;1251;1003365;-79
2024/01/19 03:12:12;;;;;;;;;;;;;;;;;;54154;1251;1057714;-81
2024/01/19 03:14:38;;;;;;;;;;;;;;;;;;53737;1251;1003705;-79
2024/01/19 03:17:05;;;;;;;;;;;;;;;;;;53022;1253;1058590;-81
2024/01/19 03:19:32;;;;;;;;;;;;;;;;;;53220;1251;1003674;-82
2024/01/19 03:21:58;;;;;;;;;;;;;;;;;;52992;1251;1038704;-82
2024/01/19 03:24:25;;;;;;;;;;;;;;;;;;53767;1253;1003741;-82
2024/01/19 03:26:52;;;;;;;;;;;;;;;;;;53627;1251;1045417;-80
2024/01/19 03:29:19;;;;;;;;;;;;;;;;;;53008;1251;1005094;-79
2024/01/19 03:31:47;;;;;;;;;;;;;;;;;;52987;1251;1060704;-80
2024/01/19 03:34:14;;;;;;;;;;;;;;;;;;53017;1254;1005235;-79
2024/01/19 03:36:40;;;;;;;;;;;;;;;;;;53028;1251;1057291;-79
2024/01/19 03:39:07;;;;;;;;;;;;;;;;;;53046;1254;1005073;-80
2024/01/19 03:41:33;;;;;;;;;;;;;;;;;;53047;1251;1057678;-80
2024/01/19 03:44:00;;;;;;;;;;;;;;;;;;53034;1253;1004592;-80
2024/01/19 03:46:26;;;;;;;;;;;;;;;;;;52995;1252;1038975;-80
2024/01/19 03:48:53;;;;;;;;;;;;;;;;;;53048;1251;1005519;-79
2024/01/19 03:51:19;;;;;;;;;;;;;;;;;;52984;1252;1046371;-79
2024/01/19 03:53:46;;;;;;;;;;;;;;;;;;52939;1253;1005607;-80
2024/01/19 03:56:13;;;;;;;;;;;;;;;;;;52956;1251;1061156;-80
2024/01/19 03:58:39;;;;;;;;;;;;;;;;;;53044;1253;1005155;-80
2024/01/19 04:01:06;;;;;;;;;;;;;;;;;;52999;1253;1056318;-80
2024/01/19 04:03:33;;;;;;;;;;;;;;;;;;52955;1252;1005075;-80
2024/01/19 04:05:59;;;;;;;;;;;;;;;;;;52965;1255;1057959;-80
2024/01/19 04:08:26;;;;;;;;;;;;;;;;;;53208;1252;1005352;-80
2024/01/19 04:10:52;;;;;;;;;;;;;;;;;;54131;1253;1038135;-80
2024/01/19 04:13:19;;;;;;;;;;;;;;;;;;54143;1252;1003326;-80
2024/01/19 04:15:46;;;;;;;;;;;;;;;;;;54160;1252;1045765;-80
2024/01/19 04:18:12;;;;;;;;;;;;;;;;;;53467;1251;1003843;-81
2024/01/19 04:20:39;;;;;;;;;;;;;;;;;;53073;1253;1061494;-80
2024/01/19 04:23:05;;;;;;;;;;;;;;;;;;53053;1251;1004878;-79
2024/01/19 04:25:32;;;;;;;;;;;;;;;;;;53018;1251;1056961;-80
2024/01/19 04:27:58;;;;;;;;;;;;;;;;;;52951;1253;1003413;-80
2024/01/19 04:30:25;;;;;;;;;;;;;;;;;;52953;1253;1057599;-80
2024/01/19 04:32:51;;;;;;;;;;;;;;;;;;53318;1253;1005122;-80
2024/01/19 04:35:18;;;;;;;;;;;;;;;;;;53363;1254;1039133;-80
2024/01/19 04:37:44;;;;;;;;;;;;;;;;;;52942;1254;1003777;-80
2024/01/19 04:40:11;;;;;;;;;;;;;;;;;;53076;1251;1045213;-80
2024/01/19 04:42:38;;;;;;;;;;;;;;;;;;53009;1254;1004662;-79
2024/01/19 04:45:04;;;;;;;;;;;;;;;;;;52986;1253;1060523;-80
2024/01/19 04:47:31;;;;;;;;;;;;;;;;;;53038;1251;1005363;-80
2024/01/19 04:49:58;;;;;;;;;;;;;;;;;;52963;1256;1058080;-79
2024/01/19 04:52:24;;;;;;;;;;;;;;;;;;52955;1253;1004621;-81
2024/01/19 04:54:51;;;;;;;;;;;;;;;;;;52983;1255;1058764;-80
2024/01/19 04:57:17;;;;;;;;;;;;;;;;;;52962;1255;1005045;-80
2024/01/19 04:59:44;;;;;;;;;;;;;;;;;;52969;1253;1038324;-79
2024/01/19 05:02:10;;;;;;;;;;;;;;;;;;52945;1253;1004620;-79
2024/01/19 05:04:37;;;;;;;;;;;;;;;;;;53831;1253;1045611;-80
2024/01/19 05:07:04;;;;;;;;;;;;;;;;;;53180;1255;1004855;-79
2024/01/19 05:09:31;;;;;;;;;;;;;;;;;;52942;1255;1059924;-80
2024/01/19 05:11:57;;;;;;;;;;;;;;;;;;53031;1253;1003459;-80
2024/01/19 05:14:24;;;;;;;;;;;;;;;;;;52996;1251;1056869;-80
2024/01/19 05:16:50;;;;;;;;;;;;;;;;;;52990;1251;1005316;-78
2024/01/19 05:19:17;;;;;;;;;;;;;;;;;;53029;1255;1060377;-79
2024/01/19 05:21:43;;;;;;;;;;;;;;;;;;53039;1252;1003665;-80
2024/01/19 05:24:10;;;;;;;;;;;;;;;;;;53036;1253;1038020;-79
2024/01/19 05:26:36;;;;;;;;;;;;;;;;;;52962;1254;1005532;-80
2024/01/19 05:29:03;;;;;;;;;;;;;;;;;;53051;1251;1045520;-79
2024/01/19 05:31:29;;;;;;;;;;;;;;;;;;53330;1253;1005731;-80
2024/01/19 05:33:56;;;;;;;;;;;;;;;;;;53009;1253;1061385;-79
2024/01/19 05:36:23;;;;;;;;;;;;;;;;;;53029;1253;1004694;-79
2024/01/19 05:38:50;;;;;;;;;;;;;;;;;;53097;1252;1057117;-79
2024/01/19 05:41:16;;;;;;;;;;;;;;;;;;52973;1251;1005231;-79
2024/01/19 05:43:43;;;;;;;;;;;;;;;;;;53006;1253;1057998;-79
2024/01/19 05:46:09;;;;;;;;;;;;;;;;;;53047;1254;1005399;-80
2024/01/19 05:48:36;;;;;;;;;;;;;;;;;;52952;1251;1039255;-80
2024/01/19 05:51:02;;;;;;;;;;;;;;;;;;53309;1252;1003801;-79
2024/01/19 05:53:29;;;;;;;;;;;;;;;;;;54165;1252;1044843;-80
2024/01/19 05:55:56;;;;;;;;;;;;;;;;;;54115;1255;1003480;-80
2024/01/19 05:58:22;;;;;;;;;;;;;;;;;;54185;1252;1060100;-80
2024/01/19 06:00:49;;;;;;;;;;;;;;;;;;53395;1252;1004752;-80
2024/01/19 06:03:15;;;;;;;;;;;;;;;;;;52948;1255;1056854;-80
2024/01/19 06:05:42;;;;;;;;;;;;;;;;;;52972;1253;1005113;-81
2024/01/19 06:08:09;;;;;;;;;;;;;;;;;;52921;1253;1057437;-80
2024/01/19 06:10:35;;;;;;;;;;;;;;;;;;52959;1255;1005469;-80
2024/01/19 06:13:02;;;;;;;;;;;;;;;;;;53043;1253;1038035;-80
2024/01/19 06:15:28;;;;;;;;;;;;;;;;;;53014;1253;1005696;-80
2024/01/19 06:17:55;;;;;;;;;;;;;;;;;;53081;1253;1045849;-79
2024/01/19 06:20:22;;;;;;;;;;;;;;;;;;53019;1253;1004979;-79
2024/01/19 06:22:48;;;;;;;;;;;;;;;;;;53049;1252;1060641;-79
2024/01/19 06:25:15;;;;;;;;;;;;;;;;;;52993;1253;1005290;-80
2024/01/19 06:27:41;;;;;;;;;;;;;;;;;;52991;1254;1057764;-79
2024/01/19 06:30:08;;;;;;;;;;;;;;;;;;53020;1250;1005238;-80
2024/01/19 06:32:34;;;;;;;;;;;;;;;;;;53082;1251;1058005;-80
2024/01/19 06:35:01;;;;;;;;;;;;;;;;;;53057;1251;1004856;-80
2024/01/19 06:37:28;;;;;;;;;;;;;;;;;;53006;1253;1005609;-80
2024/01/19 06:39:54;;;;;;;;;;;;;;;;;;53018;1252;1038053;-79
2024/01/19 06:42:21;;;;;;;;;;;;;;;;;;53103;1251;1005499;-80
2024/01/19 06:44:47;;;;;;;;;;;;;;;;;;53078;1251;1045381;-80
2024/01/19 06:47:14;;;;;;;;;;;;;;;;;;53028;1251;1005516;-80
2024/01/19 06:49:40;;;;;;;;;;;;;;;;;;53032;1256;1060371;-79
2024/01/19 06:52:07;;;;;;;;;;;;;;;;;;53097;1253;1004875;-80
2024/01/19 06:54:34;;;;;;;;;;;;;;;;;;53039;1259;1056838;-80
2024/01/19 06:57:01;;;;;;;;;;;;;;;;;;53081;1253;1005056;-80
2024/01/19 06:59:28;;;;;;;;;;;;;;;;;;54139;1255;1057503;-80
2024/01/19 07:01:54;;;;;;;;;;;;;;;;;;54161;1252;1003733;-80
2024/01/19 07:04:21;;;;;;;;;;;;;;;;;;54172;1252;1039298;-79
2024/01/19 07:06:47;;;;;;;;;;;;;;;;;;54135;1255;1003283;-80
2024/01/19 07:09:14;;;;;;;;;;;;;;;;;;54216;1251;1045343;-80
2024/01/19 07:11:41;;;;;;;;;;;;;;;;;;54183;1251;1003114;-80
2024/01/19 07:14:08;;;;;;;;;;;;;;;;;;54184;1251;1059942;-80
2024/01/19 07:16:35;;;;;;;;;;;;;;;;;;54153;1251;1003343;-80
2024/01/19 07:19:01;;;;;;;;;;;;;;;;;;54173;1251;1057096;-80
2024/01/19 07:21:28;;;;;;;;;;;;;;;;;;54200;1253;1003084;-80
2024/01/19 07:23:54;;;;;;;;;;;;;;;;;;54095;1255;1057424;-81
2024/01/19 07:26:21;;;;;;;;;;;;;;;;;;54174;1253;1003464;-79
2024/01/19 07:28:47;;;;;;;;;;;;;;;;;;54124;1256;1037963;-80
2024/01/19 07:31:14;;;;;;;;;;;;;;;;;;54154;1251;1003202;-80
2024/01/19 07:33:41;;;;;;;;;;;;;;;;;;54151;1251;1044880;-79
2024/01/19 07:36:07;;;;;;;;;;;;;;;;;;54142;1251;1003383;-79
2024/01/19 07:38:34;;;;;;;;;;;;;;;;;;54143;1251;1059626;-79
2024/01/19 07:41:00;;;;;;;;;;;;;;;;;;54165;1251;1003232;-79
2024/01/19 07:43:28;;;;;;;;;;;;;;;;;;54165;1250;1056841;-79
2024/01/19 07:45:54;;;;;;;;;;;;;;;;;;54155;1258;1003168;-80
2024/01/19 07:48:21;;;;;;;;;;;;;;;;;;54169;1253;1057844;-79
2024/01/19 07:50:48;;;;;;;;;;;;;;;;;;54158;1251;1003301;-79
2024/01/19 07:53:14;;;;;;;;;;;;;;;;;;54132;1255;1038110;-81
2024/01/19 07:55:41;;;;;;;;;;;;;;;;;;54169;1251;1003446;-80
2024/01/19 07:58:07;;;;;;;;;;;;;;;;;;54107;1255;1045617;-79
2024/01/19 08:00:34;;;;;;;;;;;;;;;;;;53713;1251;1004624;-80
2024/01/19 08:03:00;;;;;;;;;;;;;;;;;;53650;1250;1060243;-79
2024/01/19 08:05:27;;;;;;;;;;;;;;;;;;54177;1251;1003206;-79
2024/01/19 08:07:54;;;;;;;;;;;;;;;;;;54184;1253;1057521;-78
2024/01/19 08:10:20;;;;;;;;;;;;;;;;;;54251;1249;1003325;-80
2024/01/19 08:12:47;;;;;;;;;;;;;;;;;;54185;1250;1058097;-79
2024/01/19 08:15:13;;;;;;;;;;;;;;;;;;54158;1251;1003177;-79
2024/01/19 08:17:40;;;;;;;;;;;;;;;;;;54164;1251;1038418;-80
2024/01/19 08:20:10;;;;;;;;;;;;;;;;;;54093;1254;1003153;-80
2024/01/19 08:22:37;;;;;;;;;;;;;;;;;;54084;1253;1046194;-79
2024/01/19 08:25:04;;;;;;;;;;;;;;;;;;54098;1255;1003240;-80
2024/01/19 08:27:30;;;;;;;;;;;;;;;;;;54087;1253;1060295;-80
2024/01/19 08:29:57;;;;;;;;;;;;;;;;;;54092;1254;1003461;-79
2024/01/19 08:32:24;;;;;;;;;;;;;;;;;;54111;1252;1056737;-80
2024/01/19 08:34:50;;;;;;;;;;;;;;;;;;54078;1253;1003112;-80
2024/01/19 08:37:17;;;;;;;;;;;;;;;;;;54087;1253;1057765;-80
2024/01/19 08:39:44;;;;;;;;;;;;;;;;;;54086;1255;1003237;-79
2024/01/19 08:42:10;;;;;;;;;;;;;;;;;;54065;1258;1037832;-79
2024/01/19 08:44:37;;;;;;;;;;;;;;;;;;54088;1253;1003265;-79
2024/01/19 08:47:04;;;;;;;;;;;;;;;;;;54101;1254;1045140;-80
2024/01/19 08:49:30;;;;;;;;;;;;;;;;;;54120;1255;1003241;-81
2024/01/19 08:51:57;;;;;;;;;;;;;;;;;;54117;1253;1060758;-81
2024/01/19 08:54:23;;;;;;;;;;;;;;;;;;54111;1253;1003321;-79
2024/01/19 08:56:50;;;;;;;;;;;;;;;;;;54118;1251;1056178;-80
2024/01/19 08:59:18;;;;;;;;;;;;;;;;;;54104;1251;1003336;-80
2024/01/19 09:01:44;;;;;;;;;;;;;;;;;;54104;1255;1058015;-80
2024/01/19 09:04:10;;;;;;;;;;;;;;;;;;54091;1252;1003829;-80
2024/01/19 09:06:37;;;;;;;;;;;;;;;;;;54102;1255;1038762;-79
2024/01/19 09:09:04;;;;;;;;;;;;;;;;;;54078;1255;1003994;-79
2024/01/19 09:11:30;;;;;;;;;;;;;;;;;;54128;1255;1045969;-80
2024/01/19 09:13:57;;;;;;;;;;;;;;;;;;54120;1251;1003430;-81
2024/01/19 09:16:24;;;;;;;;;;;;;;;;;;54134;1253;1060495;-82
2024/01/19 09:18:50;;;;;;;;;;;;;;;;;;54119;1252;1003466;-80
2024/01/19 09:21:17;;;;;;;;;;;;;;;;;;54198;1251;1056604;-80
2024/01/19 09:23:44;;;;;;;;;;;;;;;;;;54167;1251;1003415;-80
2024/01/19 09:26:11;;;;;;;;;;;;;;;;;;54132;1256;1057522;-80
2024/01/19 09:28:37;;;;;;;;;;;;;;;;;;54090;1252;1003540;-80
2024/01/19 09:31:04;;;;;;;;;;;;;;;;;;53629;1251;1039637;-80
2024/01/19 09:33:30;;;;;;;;;;;;;;;;;;53444;1251;1003980;-80
2024/01/19 09:35:57;;;;;;;;;;;;;;;;;;54097;1255;1045056;-79
2024/01/19 09:38:23;;;;;;;;;;;;;;;;;;54113;1251;1003401;-81
2024/01/19 09:40:50;;;;;;;;;;;;;;;;;;54130;1251;1059926;-79
2024/01/19 09:43:16;;;;;;;;;;;;;;;;;;54102;1256;1003319;-80
2024/01/19 09:45:43;;;;;;;;;;;;;;;;;;54100;1251;1057573;-80
2024/01/19 09:48:09;;;;;;;;;;;;;;;;;;54114;1253;1003349;-80
2024/01/19 09:50:36;;;;;;;;;;;;;;;;;;53712;1256;1058394;-79
2024/01/19 09:53:03;;;;;;;;;;;;;;;;;;53211;1251;1003607;-80
2024/01/19 09:55:29;;;;;;;;;;;;;;;;;;53292;1254;1039254;-79
2024/01/19 09:57:59;;;;;;;;;;;;;;;;;;53201;1251;1005332;-80
2024/01/19 10:00:27;;;;;;;;;;;;;;;;;;53146;1263;1045953;-79
2024/01/19 10:02:53;;;;;;;;;;;;;;;;;;53182;1253;1005606;-80
2024/01/19 10:05:20;;;;;;;;;;;;;;;;;;53094;1254;1060221;-78
2024/01/19 10:07:47;;;;;;;;;;;;;;;;;;53043;1251;1004760;-78
2024/01/19 10:10:15;;;;;;;;;;;;;;;;;;53085;1251;1056978;-80
2024/01/19 10:12:41;;;;;;;;;;;;;;;;;;53145;1251;1004778;-80
2024/01/19 10:15:08;;;;;;;;;;;;;;;;;;53322;1254;1058703;-80
2024/01/19 10:17:35;;;;;;;;;;;;;;;;;;54097;1257;1003407;-80
2024/01/19 10:20:02;;;;;;;;;;;;;;;;;;54143;1253;1039455;-80
2024/01/19 10:22:28;;;;;;;;;;;;;;;;;;54128;1251;1003612;-79
2024/01/19 10:24:55;;;;;;;;;;;;;;;;;;54174;1251;1045867;-79
2024/01/19 10:27:21;;;;;;;;;;;;;;;;;;54162;1255;1003387;-80
2024/01/19 10:29:48;;;;;;;;;;;;;;;;;;54169;1251;1060320;-78
2024/01/19 10:32:14;;;;;;;;;;;;;;;;;;54060;1251;1003367;-80
2024/01/19 10:34:41;;;;;;;;;;;;;;;;;;53131;1251;1056937;-78
2024/01/19 10:37:07;;;;;;;;;;;;;;;;;;53017;1251;1004718;-80
2024/01/19 10:39:34;;;;;;;;;;;;;;;;;;52969;1251;1058328;-80
2024/01/19 10:42:00;;;;;;;;;;;;;;;;;;52979;1253;1004983;-80
2024/01/19 10:44:27;;;;;;;;;;;;;;;;;;53055;1251;1039388;-78
2024/01/19 10:46:55;;;;;;;;;;;;;;;;;;52944;1254;1004736;-80
2024/01/19 10:49:22;;;;;;;;;;;;;;;;;;52946;1251;1046333;-79
2024/01/19 10:51:49;;;;;;;;;;;;;;;;;;52938;1251;1004756;-79
2024/01/19 10:54:17;;;;;;;;;;;;;;;;;;52901;1253;1060464;-79
2024/01/19 10:56:45;;;;;;;;;;;;;;;;;;53082;1251;1005649;-79
2024/01/19 10:59:11;;;;;;;;;;;;;;;;;;53017;1251;1005112;-79
2024/01/19 11:01:38;;;;;;;;;;;;;;;;;;53011;1251;1057445;-80
2024/01/19 11:04:05;;;;;;;;;;;;;;;;;;52951;1251;1005029;-79
2024/01/19 11:06:31;;;;;;;;;;;;;;;;;;52941;1254;1058000;-79
2024/01/19 11:08:58;;;;;;;;;;;;;;;;;;52981;1251;1005051;-80
2024/01/19 11:11:26;;;;;;;;;;;;;;;;;;52975;1250;1037964;-80
2024/01/19 11:13:53;;;;;;;;;;;;;;;;;;53022;1251;1003987;-80
2024/01/19 11:16:19;;;;;;;;;;;;;;;;;;52964;1254;1005013;-79
2024/01/19 11:18:46;;;;;;;;;;;;;;;;;;52876;1251;1046042;-79
2024/01/19 11:21:12;;;;;;;;;;;;;;;;;;52997;1255;1005536;-79
2024/01/19 11:23:39;;;;;;;;;;;;;;;;;;53717;1253;1061158;-80
2024/01/19 11:26:07;;;;;;;;;;;;;;;;;;53126;1251;1005510;-79
2024/01/19 11:28:34;;;;;;;;;;;;;;;;;;53237;1251;1057491;-79
2024/01/19 11:31:00;;;;;;;;;;;;;;;;;;53104;1251;1005300;-79
2024/01/19 11:33:27;;;;;;;;;;;;;;;;;;52951;1254;1057470;-79
2024/01/19 11:35:53;;;;;;;;;;;;;;;;;;53027;1251;1005484;-80
2024/01/19 11:38:20;;;;;;;;;;;;;;;;;;52927;1251;1039084;-79
2024/01/19 11:40:48;;;;;;;;;;;;;;;;;;53013;1254;1004821;-80
2024/01/19 11:43:14;;;;;;;;;;;;;;;;;;53188;1251;1046274;-78
2024/01/19 11:45:42;;;;;;;;;;;;;;;;;;53309;1251;1003770;-80
2024/01/19 11:48:09;;;;;;;;;;;;;;;;;;53161;1250;1061347;-80
2024/01/19 11:50:35;;;;;;;;;;;;;;;;;;53228;1251;1003667;-78
2024/01/19 11:53:02;;;;;;;;;;;;;;;;;;53238;1251;1056991;-80
2024/01/19 11:55:29;;;;;;;;;;;;;;;;;;53282;1251;1005112;-80
2024/01/19 11:57:55;;;;;;;;;;;;;;;;;;53227;1251;1058262;-80
2024/01/19 12:00:22;;;;;;;;;;;;;;;;;;53066;1254;1005378;-79
2024/01/19 12:02:49;;;;;;;;;;;;;;;;;;53011;1254;1039039;-80
2024/01/19 12:05:15;;;;;;;;;;;;;;;;;;53104;1251;1005589;-80
2024/01/19 12:07:42;;;;;;;;;;;;;;;;;;52987;1251;1045943;-79
2024/01/19 12:10:09;;;;;;;;;;;;;;;;;;52983;1251;1004725;-79
2024/01/19 12:12:36;;;;;;;;;;;;;;;;;;52924;1254;1059460;-80
2024/01/19 12:15:02;;;;;;;;;;;;;;;;;;53108;1251;1005634;-81
2024/01/19 12:17:29;;;;;;;;;;;;;;;;;;53046;1254;1056462;-81
2024/01/19 12:19:55;;;;;;;;;;;;;;;;;;52981;1251;1004832;-78
2024/01/19 12:22:22;;;;;;;;;;;;;;;;;;53129;1251;1057239;-80
2024/01/19 12:24:49;;;;;;;;;;;;;;;;;;52992;1251;1005605;-79
2024/01/19 12:27:15;;;;;;;;;;;;;;;;;;53005;1254;1038664;-79
2024/01/19 12:29:42;;;;;;;;;;;;;;;;;;52943;1252;1005244;-80
2024/01/19 12:32:08;;;;;;;;;;;;;;;;;;52999;1254;1045611;-81
2024/01/19 12:34:35;;;;;;;;;;;;;;;;;;52987;1251;1004834;-80
2024/01/19 12:37:02;;;;;;;;;;;;;;;;;;53024;1251;1059985;-78
2024/01/19 12:39:29;;;;;;;;;;;;;;;;;;52941;1251;1005496;-79
2024/01/19 12:41:55;;;;;;;;;;;;;;;;;;52945;1251;1058389;-80
2024/01/19 12:44:22;;;;;;;;;;;;;;;;;;53118;1251;1004585;-80
2024/01/19 12:46:48;;;;;;;;;;;;;;;;;;53026;1251;1058691;-79
2024/01/19 12:49:15;;;;;;;;;;;;;;;;;;52933;1251;1004853;-79
2024/01/19 12:51:42;;;;;;;;;;;;;;;;;;52913;1251;1038373;-80
2024/01/19 12:54:09;;;;;;;;;;;;;;;;;;53048;1251;1003767;-81
2024/01/19 12:56:35;;;;;;;;;;;;;;;;;;52929;1254;1045777;-79
2024/01/19 12:59:02;;;;;;;;;;;;;;;;;;53079;1251;1005481;-81
2024/01/19 13:01:28;;;;;;;;;;;;;;;;;;53070;1252;1059839;-81
2024/01/19 13:03:55;;;;;;;;;;;;;;;;;;53525;1250;1003843;-79
2024/01/19 13:06:21;;;;;;;;;;;;;;;;;;53106;1251;1056638;-79
2024/01/19 13:08:48;;;;;;;;;;;;;;;;;;53192;1251;1005271;-80
2024/01/19 13:11:15;;;;;;;;;;;;;;;;;;53040;1253;1057445;-80
2024/01/19 13:13:41;;;;;;;;;;;;;;;;;;52936;1254;1004827;-80
2024/01/19 13:16:12;;;;;;;;;;;;;;;;;;53016;1251;1038552;-81
2024/01/19 13:18:39;;;;;;;;;;;;;;;;;;53008;1251;1004880;-80
2024/01/19 13:21:05;;;;;;;;;;;;;;;;;;53001;1251;1005258;-80
2024/01/19 13:23:32;;;;;;;;;;;;;;;;;;53212;1251;1045326;-80
2024/01/19 13:25:58;;;;;;;;;;;;;;;;;;53268;1253;1005333;-80
2024/01/19 13:28:25;;;;;;;;;;;;;;;;;;53416;1251;1061220;-80
2024/01/19 13:30:51;;;;;;;;;;;;;;;;;;53301;1254;1005010;-81
2024/01/19 13:33:18;;;;;;;;;;;;;;;;;;53175;1251;1056165;-80
2024/01/19 13:35:47;;;;;;;;;;;;;;;;;;53166;1251;1005113;-80
2024/01/19 13:38:14;;;;;;;;;;;;;;;;;;53016;1254;1058479;-79
2024/01/19 13:40:40;;;;;;;;;;;;;;;;;;53045;1254;1005222;-80
2024/01/19 13:43:07;;;;;;;;;;;;;;;;;;53012;1254;1038226;-80
2024/01/19 13:45:33;;;;;;;;;;;;;;;;;;53207;1254;1004811;-81
2024/01/19 13:48:00;;;;;;;;;;;;;;;;;;53252;1254;1046396;-80
2024/01/19 13:50:27;;;;;;;;;;;;;;;;;;53063;1251;1005400;-79
2024/01/19 13:52:53;;;;;;;;;;;;;;;;;;53020;1253;1060383;-80
2024/01/19 13:55:20;;;;;;;;;;;;;;;;;;53048;1251;1005292;-80
2024/01/19 13:57:46;;;;;;;;;;;;;;;;;;52996;1252;1057223;-80
2024/01/19 14:00:13;;;;;;;;;;;;;;;;;;52936;1254;1003960;-80
2024/01/19 14:02:40;;;;;;;;;;;;;;;;;;53010;1251;1057841;-80
2024/01/19 14:05:07;;;;;;;;;;;;;;;;;;53082;1254;1005533;-81
2024/01/19 14:07:34;;;;;;;;;;;;;;;;;;53008;1251;1039137;-80
2024/01/19 14:10:00;;;;;;;;;;;;;;;;;;53024;1251;1005064;-80
2024/01/19 14:12:27;;;;;;;;;;;;;;;;;;52949;1251;1045814;-80
2024/01/19 14:14:54;;;;;;;;;;;;;;;;;;53055;1251;1004819;-81
2024/01/19 14:17:20;;;;;;;;;;;;;;;;;;53160;1254;1060617;-80
2024/01/19 14:19:47;;;;;;;;;;;;;;;;;;53150;1251;1003820;-80
2024/01/19 14:22:13;;;;;;;;;;;;;;;;;;53130;1254;1056723;-80
2024/01/19 14:24:40;;;;;;;;;;;;;;;;;;53839;1251;1003607;-80
2024/01/19 14:27:06;;;;;;;;;;;;;;;;;;52987;1254;1057370;-80
2024/01/19 14:29:33;;;;;;;;;;;;;;;;;;53001;1251;1005399;-79
2024/01/19 14:31:59;;;;;;;;;;;;;;;;;;53032;1254;1038596;-79
2024/01/19 14:34:26;;;;;;;;;;;;;;;;;;53505;1253;1004698;-80
2024/01/19 14:36:53;;;;;;;;;;;;;;;;;;53028;1252;1045753;-80
2024/01/19 14:39:19;;;;;;;;;;;;;;;;;;53422;1250;1003839;-80
2024/01/19 14:41:46;;;;;;;;;;;;;;;;;;53025;1251;1060460;-80
2024/01/19 14:44:12;;;;;;;;;;;;;;;;;;53290;1249;1005573;-80
2024/01/19 14:46:40;;;;;;;;;;;;;;;;;;53158;1251;1057119;-81
2024/01/19 14:49:07;;;;;;;;;;;;;;;;;;53060;1251;1005324;-80
2024/01/19 14:51:33;;;;;;;;;;;;;;;;;;53001;1254;1058586;-79
2024/01/19 14:54:03;;;;;;;;;;;;;;;;;;53045;1251;1005725;-80
2024/01/19 14:56:30;;;;;;;;;;;;;;;;;;53163;1251;1038707;-79
2024/01/19 14:58:57;;;;;;;;;;;;;;;;;;53173;1251;1005033;-79
2024/01/19 15:01:23;;;;;;;;;;;;;;;;;;53057;1251;1046397;-79
2024/01/19 15:03:50;;;;;;;;;;;;;;;;;;52999;1251;1004917;-79
2024/01/19 15:06:17;;;;;;;;;;;;;;;;;;53100;1251;1061160;-80
2024/01/19 15:08:43;;;;;;;;;;;;;;;;;;52985;1251;1003687;-80
2024/01/19 15:11:10;;;;;;;;;;;;;;;;;;53008;1251;1059707;-79
2024/01/19 15:13:36;;;;;;;;;;;;;;;;;;53067;1251;1005283;-80
2024/01/19 15:16:03;;;;;;;;;;;;;;;;;;53093;1250;1057423;-79
2024/01/19 15:18:29;;;;;;;;;;;;;;;;;;53062;1253;1004956;-81
2024/01/19 15:20:56;;;;;;;;;;;;;;;;;;52936;1254;1038832;-79
2024/01/19 15:23:23;;;;;;;;;;;;;;;;;;53174;1251;1004080;-81
2024/01/19 15:25:49;;;;;;;;;;;;;;;;;;52960;1254;1045070;-80
2024/01/19 15:28:16;;;;;;;;;;;;;;;;;;52855;1251;1005652;-80
2024/01/19 15:30:42;;;;;;;;;;;;;;;;;;52967;1251;1060567;-81
2024/01/19 15:33:10;;;;;;;;;;;;;;;;;;53054;1251;1005400;-79
2024/01/19 15:35:37;;;;;;;;;;;;;;;;;;52889;1250;1057275;-80
2024/01/19 15:38:03;;;;;;;;;;;;;;;;;;52947;1250;1005496;-80
2024/01/19 15:40:31;;;;;;;;;;;;;;;;;;52866;1251;1057539;-80
2024/01/19 15:42:58;;;;;;;;;;;;;;;;;;52901;1251;1005285;-80
2024/01/19 15:45:24;;;;;;;;;;;;;;;;;;52909;1251;1038992;-79
2024/01/19 15:47:51;;;;;;;;;;;;;;;;;;52958;1250;1005572;-79
2024/01/19 15:50:17;;;;;;;;;;;;;;;;;;52910;1251;1045510;-79
2024/01/19 15:52:44;;;;;;;;;;;;;;;;;;52926;1250;1003711;-81
2024/01/19 15:55:11;;;;;;;;;;;;;;;;;;52941;1251;1060920;-79
2024/01/19 15:57:37;;;;;;;;;;;;;;;;;;52970;1251;1005324;-80
2024/01/19 16:00:04;;;;;;;;;;;;;;;;;;52877;1254;1056092;-81
2024/01/19 16:02:30;;;;;;;;;;;;;;;;;;52968;1251;1005531;-79
2024/01/19 16:04:57;;;;;;;;;;;;;;;;;;52905;1251;1057345;-79
2024/01/19 16:07:23;;;;;;;;;;;;;;;;;;52835;1254;1005484;-81